Time;durP1;ratioP1;P1;durP2;ratioP2;P2;SDS_P1;SDS_P2;PMS_P1;PMS_P2;Temp;Humidity;BMP_temperature;BMP_pressure;BME280_temperature;BME280_humidity;BME280_pressure;Samples;Min_cycle;Max_cycle;Signal;HPM_P1;HPM_P2
2021/11/12 00:14:22;;;;;;;180.13;34.47;;;1.70;99.90;;;;;;5046497;28;20083;-68
2021/11/12 00:16:49;;;;;;;206.70;38.53;;;1.70;99.90;;;;;;5045463;28;20142;-68
2021/11/12 00:19:18;;;;;;;285.00;40.37;;;1.80;99.90;;;;;;5045468;28;20056;-68
2021/11/12 00:21:48;;;;;;;245.63;39.63;;;1.70;99.90;;;;;;5046019;28;20071;-69
2021/11/12 00:24:15;;;;;;;303.20;39.43;;;1.70;99.90;;;;;;5045674;28;20057;-68
2021/11/12 00:26:42;;;;;;;252.23;37.60;;;1.70;99.90;;;;;;5044314;28;20106;-68
2021/11/12 00:29:11;;;;;;;396.07;49.07;;;1.70;99.90;;;;;;5043941;28;20496;-69
2021/11/12 00:31:46;;;;;;;330.40;45.83;;;1.60;99.90;;;;;;5043612;28;20061;-69
2021/11/12 00:37:11;;;;;;;515.00;55.03;;;1.60;99.90;;;;;;5031529;28;20048;-68
2021/11/12 00:39:41;;;;;;;283.37;41.17;;;1.50;99.90;;;;;;5042132;28;20053;-69
2021/11/12 00:42:13;;;;;;;235.33;37.23;;;1.60;99.90;;;;;;5044870;28;20056;-68
2021/11/12 00:44:44;;;;;;;309.90;40.57;;;1.70;99.90;;;;;;5043983;28;20060;-68
2021/11/12 00:47:22;;;;;;;290.53;45.57;;;1.60;99.90;;;;;;5041117;28;20082;-68
2021/11/12 00:50:06;;;;;;;338.77;48.30;;;1.60;99.90;;;;;;5045471;28;20249;-68
2021/11/12 00:52:43;;;;;;;191.80;35.10;;;1.70;99.90;;;;;;5042125;28;20048;-68
2021/11/12 00:55:10;;;;;;;377.80;45.23;;;1.70;99.90;;;;;;5044739;28;20501;-69
2021/11/12 00:57:38;;;;;;;394.13;46.07;;;1.60;99.90;;;;;;5041148;28;20694;-69
2021/11/12 01:00:06;;;;;;;271.03;42.23;;;1.60;99.90;;;;;;5043251;28;20041;-68
2021/11/12 01:02:35;;;;;;;381.93;46.50;;;1.70;99.90;;;;;;5042642;28;20088;-69
2021/11/12 01:05:03;;;;;;;276.67;47.43;;;1.80;99.90;;;;;;5044516;28;21135;-68
2021/11/12 01:07:30;;;;;;;208.97;42.30;;;1.80;99.90;;;;;;5044869;28;20056;-69
2021/11/12 01:09:57;;;;;;;275.97;43.43;;;1.80;99.90;;;;;;5046473;28;20052;-69
2021/11/12 01:12:25;;;;;;;281.40;41.80;;;1.70;99.90;;;;;;5044812;28;21073;-68
2021/11/12 01:14:52;;;;;;;260.13;44.63;;;1.60;99.90;;;;;;5043654;28;20045;-69
2021/11/12 01:17:19;;;;;;;245.17;42.70;;;1.60;99.90;;;;;;5042129;28;20189;-68
2021/11/12 01:19:48;;;;;;;276.27;45.90;;;1.50;99.90;;;;;;5048088;28;20517;-71
2021/11/12 01:22:15;;;;;;;383.60;54.83;;;1.50;99.90;;;;;;5049516;28;20056;-68
2021/11/12 01:24:42;;;;;;;196.00;40.33;;;1.60;99.90;;;;;;5047620;28;20098;-69
2021/11/12 01:27:09;;;;;;;331.13;43.03;;;1.60;99.90;;;;;;5048301;28;20130;-69
2021/11/12 01:29:37;;;;;;;240.17;40.60;;;1.50;99.90;;;;;;5047391;28;20091;-69
2021/11/12 01:34:49;;;;;;;199.33;39.43;;;1.60;99.90;;;;;;5049029;28;20545;-68
2021/11/12 01:37:19;;;;;;;194.33;37.93;;;1.60;99.90;;;;;;5046889;28;20239;-68
2021/11/12 01:39:51;;;;;;;259.90;39.53;;;1.60;99.90;;;;;;5049823;28;20813;-68
2021/11/12 01:42:19;;;;;;;308.97;51.73;;;1.60;99.90;;;;;;5049274;28;20053;-68
2021/11/12 01:44:48;;;;;;;227.70;42.67;;;1.70;99.90;;;;;;5048588;28;20597;-68
2021/11/12 01:47:20;;;;;;;231.77;43.33;;;1.60;99.90;;;;;;5049876;28;20071;-69
2021/11/12 01:49:50;;;;;;;302.50;46.70;;;1.60;99.90;;;;;;5049839;28;20060;-68
2021/11/12 01:52:19;;;;;;;170.73;35.53;;;1.70;99.90;;;;;;5048555;28;20052;-69
2021/11/12 01:54:54;;;;;;;283.03;41.67;;;1.70;99.90;;;;;;5048656;28;20059;-69
2021/11/12 02:00:09;;;;;;;152.33;31.70;;;1.50;99.90;;;;;;5044353;28;20471;-70
2021/11/12 02:02:37;;;;;;;300.33;42.47;;;1.40;99.90;;;;;;5047135;28;20109;-69
2021/11/12 02:05:06;;;;;;;219.77;38.60;;;1.40;99.90;;;;;;5045908;28;20386;-70
2021/11/12 02:07:35;;;;;;;243.57;42.83;;;1.40;99.90;;;;;;5046007;28;20049;-67
2021/11/12 02:10:06;;;;;;;127.80;33.03;;;1.50;99.90;;;;;;5050382;28;20071;-69
2021/11/12 02:12:45;;;;;;;133.93;33.40;;;1.50;99.90;;;;;;5044945;28;20053;-70
2021/11/12 02:15:12;;;;;;;193.37;34.67;;;1.30;99.90;;;;;;5045464;28;20052;-70
2021/11/12 02:17:42;;;;;;;210.20;35.70;;;1.30;99.90;;;;;;5044634;28;20076;-69
2021/11/12 02:20:15;;;;;;;232.03;39.23;;;1.30;99.90;;;;;;5047338;28;20063;-70
2021/11/12 02:22:45;;;;;;;155.93;33.50;;;1.30;99.90;;;;;;5043765;28;20505;-69
2021/11/12 02:25:14;;;;;;;228.27;35.97;;;1.30;99.90;;;;;;5047076;28;20049;-69
2021/11/12 02:27:49;;;;;;;220.03;37.63;;;1.30;99.90;;;;;;5046117;28;20618;-69
2021/11/12 02:30:23;;;;;;;218.67;37.80;;;1.30;99.90;;;;;;5045494;28;20110;-69
2021/11/12 02:32:59;;;;;;;290.67;42.27;;;1.30;99.90;;;;;;5044839;28;20060;-69
2021/11/12 02:35:27;;;;;;;258.05;34.92;;;1.40;99.90;;;;;;5046121;28;20052;-67
2021/11/12 02:37:56;;;;;;;184.47;38.67;;;1.40;99.90;;;;;;5047759;28;20095;-68
2021/11/12 02:40:23;;;;;;;282.27;39.93;;;1.50;99.90;;;;;;5045808;28;20048;-68
2021/11/12 02:42:51;;;;;;;162.27;33.87;;;1.40;99.90;;;;;;5046004;28;20153;-68
2021/11/12 02:45:18;;;;;;;262.00;40.80;;;1.50;99.90;;;;;;5044420;28;20435;-68
2021/11/12 02:47:45;;;;;;;172.53;29.67;;;1.50;99.90;;;;;;5048566;28;20045;-70
2021/11/12 02:50:12;;;;;;;161.53;32.50;;;1.40;99.90;;;;;;5046651;28;20056;-68
2021/11/12 02:52:41;;;;;;;123.73;31.37;;;1.40;99.90;;;;;;5047298;28;20114;-68
2021/11/12 02:55:09;;;;;;;105.73;30.80;;;1.50;99.90;;;;;;5046765;28;20125;-68
2021/11/12 02:57:37;;;;;;;110.33;30.53;;;1.60;99.90;;;;;;5045578;28;20049;-68
2021/11/12 03:00:06;;;;;;;103.93;29.87;;;1.60;99.90;;;;;;5048099;28;20056;-68
2021/11/12 03:02:34;;;;;;;71.63;25.80;;;1.60;99.90;;;;;;5047219;28;20060;-68
2021/11/12 03:05:01;;;;;;;100.27;28.27;;;1.60;99.90;;;;;;5047221;28;20105;-68
2021/11/12 03:07:28;;;;;;;113.13;30.27;;;1.60;99.90;;;;;;5047507;28;20072;-68
2021/11/12 03:09:55;;;;;;;95.23;28.03;;;1.50;99.90;;;;;;5046576;28;20421;-68
2021/11/12 03:12:24;;;;;;;95.23;25.30;;;1.40;99.90;;;;;;5043972;28;20060;-68
2021/11/12 03:14:52;;;;;;;105.73;27.40;;;1.40;99.90;;;;;;5046852;28;20064;-69
2021/11/12 03:17:19;;;;;;;83.97;26.40;;;1.40;99.90;;;;;;5046895;28;20049;-68
2021/11/12 03:19:46;;;;;;;69.70;25.10;;;1.50;99.90;;;;;;5046616;28;20478;-68
2021/11/12 03:22:17;;;;;;;62.87;26.23;;;1.60;99.90;;;;;;5048865;28;20045;-68
2021/11/12 03:24:47;;;;;;;65.63;25.17;;;1.60;99.90;;;;;;5045423;28;20080;-68
2021/11/12 03:27:20;;;;;;;79.47;26.37;;;1.60;99.90;;;;;;5051276;28;20057;-68
2021/11/12 04:02:47;;;;;;;115.13;30.13;;;1.50;99.90;;;;;;5039901;28;21105;-70
2021/11/12 04:19:07;;;;;;;107.50;29.23;;;1.50;99.90;;;;;;5045265;28;20083;-69
2021/11/12 04:21:55;;;;;;;120.77;29.47;;;1.50;99.90;;;;;;5044729;28;20060;-69
2021/11/12 04:49:39;;;;;;;74.97;25.20;;;1.70;99.90;;;;;;5017702;28;20055;-70
2021/11/12 05:11:47;;;;;;;81.60;28.50;;;1.70;99.90;;;;;;5045271;28;20129;-69
2021/11/12 05:34:23;;;;;;;69.33;24.17;;;1.50;99.90;;;;;;5045351;28;20051;-69
2021/11/12 05:45:09;;;;;;;69.13;25.03;;;1.40;99.90;;;;;;5042191;28;20087;-70
2021/11/12 05:50:23;;;;;;;81.03;24.60;;;1.40;99.90;;;;;;5045364;28;20369;-70
2021/11/12 05:55:35;;;;;;;102.07;28.40;;;1.50;99.90;;;;;;5042290;28;20055;-69
2021/11/12 05:58:04;;;;;;;93.23;29.00;;;1.60;99.90;;;;;;5042863;28;20129;-69
2021/11/12 06:00:31;;;;;;;84.27;27.10;;;1.60;99.90;;;;;;5042506;28;20092;-69
2021/11/12 06:02:57;;;;;;;95.30;26.83;;;1.50;99.90;;;;;;5043017;28;20523;-69
2021/11/12 06:05:25;;;;;;;89.40;26.33;;;1.60;99.90;;;;;;5043595;28;20476;-70
2021/11/12 06:07:52;;;;;;;113.07;28.43;;;1.50;99.90;;;;;;5045154;28;20133;-70
2021/11/12 06:10:20;;;;;;;158.60;31.50;;;1.50;99.90;;;;;;5046536;28;20052;-68
2021/11/12 06:12:48;;;;;;;89.90;26.80;;;1.50;99.90;;;;;;5051366;28;20057;-69
2021/11/12 06:15:17;;;;;;;81.27;26.40;;;1.60;99.90;;;;;;5047146;28;20052;-70
2021/11/12 06:17:45;;;;;;;84.47;23.80;;;1.50;99.90;;;;;;5045444;28;20105;-69
2021/11/12 06:20:13;;;;;;;82.70;24.40;;;1.50;99.90;;;;;;5045143;28;20064;-70
2021/11/12 06:22:40;;;;;;;75.57;25.13;;;1.40;99.90;;;;;;5041047;28;20099;-70
2021/11/12 06:25:08;;;;;;;64.33;24.87;;;1.40;99.90;;;;;;5044986;28;20052;-69
2021/11/12 06:27:35;;;;;;;74.77;25.07;;;1.50;99.90;;;;;;5048716;28;20186;-70
2021/11/12 06:30:03;;;;;;;68.83;24.90;;;1.60;99.90;;;;;;5046850;28;20115;-70
2021/11/12 06:32:31;;;;;;;89.57;27.00;;;1.60;99.90;;;;;;5045742;28;20083;-70
2021/11/12 06:34:58;;;;;;;82.00;26.10;;;1.60;99.90;;;;;;5047689;28;20469;-69
2021/11/12 06:37:25;;;;;;;87.20;26.97;;;1.60;99.90;;;;;;5045103;28;20071;-69
2021/11/12 06:39:52;;;;;;;79.67;26.53;;;1.60;99.90;;;;;;5048636;28;20393;-69
2021/11/12 06:42:21;;;;;;;72.27;26.00;;;1.60;99.90;;;;;;5050606;28;20045;-69
2021/11/12 06:50:23;;;;;;;91.90;29.17;;;1.60;99.90;;;;;;5050846;28;20828;-69
2021/11/12 06:52:51;;;;;;;90.40;27.47;;;1.70;99.90;;;;;;5047852;28;20398;-69
2021/11/12 06:55:19;;;;;;;91.17;28.23;;;1.70;99.90;;;;;;5047729;28;20514;-69
2021/11/12 06:57:48;;;;;;;98.87;28.20;;;1.70;99.90;;;;;;5050895;28;20111;-70
2021/11/12 07:00:17;;;;;;;90.73;26.67;;;1.70;99.90;;;;;;5048188;28;20052;-72
2021/11/12 07:02:45;;;;;;;86.90;28.63;;;1.60;99.90;;;;;;5046784;28;20055;-70
2021/11/12 07:05:13;;;;;;;90.10;27.63;;;1.60;99.90;;;;;;5048093;28;20084;-70
2021/11/12 07:07:41;;;;;;;93.37;27.30;;;1.70;99.90;;;;;;5049098;28;20064;-69
2021/11/12 07:10:10;;;;;;;87.83;27.93;;;1.70;99.90;;;;;;5048061;28;20056;-71
2021/11/12 07:12:37;;;;;;;87.17;28.43;;;1.60;99.90;;;;;;5045199;28;20161;-69
2021/11/12 07:15:04;;;;;;;87.00;30.40;;;1.70;99.90;;;;;;5046475;28;20099;-69
2021/11/12 07:17:31;;;;;;;92.50;28.90;;;1.80;99.90;;;;;;5048503;28;20049;-69
2021/11/12 07:20:00;;;;;;;85.60;28.63;;;1.80;99.90;;;;;;5051157;28;20080;-70
2021/11/12 07:22:27;;;;;;;84.77;27.50;;;1.80;99.90;;;;;;5049037;28;20092;-70
2021/11/12 07:24:54;;;;;;;76.80;26.17;;;1.90;99.90;;;;;;5049010;28;20105;-70
2021/11/12 07:27:20;;;;;;;79.13;25.63;;;1.90;99.90;;;;;;5045277;28;20075;-70
2021/11/12 07:29:49;;;;;;;67.77;26.27;;;1.80;99.90;;;;;;5043326;28;20514;-69
2021/11/12 07:32:17;;;;;;;73.23;25.37;;;1.90;99.90;;;;;;5043017;28;20135;-70
2021/11/12 07:34:46;;;;;;;66.67;22.23;;;1.90;99.90;;;;;;5043075;28;20056;-70
2021/11/12 07:37:15;;;;;;;75.00;25.97;;;1.90;99.90;;;;;;5041776;28;20049;-70
2021/11/12 07:39:52;;;;;;;68.03;25.17;;;1.90;99.90;;;;;;5043881;28;20613;-70
2021/11/12 07:42:28;;;;;;;72.40;24.17;;;1.90;99.90;;;;;;5045804;28;20052;-69
2021/11/12 07:45:03;;;;;;;63.40;24.57;;;1.90;99.90;;;;;;5046964;28;20498;-69
2021/11/12 07:47:30;;;;;;;65.33;24.70;;;1.90;99.90;;;;;;5047139;28;20146;-69
2021/11/12 07:49:59;;;;;;;64.83;24.27;;;2.00;99.90;;;;;;5049879;28;20052;-73
2021/11/12 07:52:30;;;;;;;61.40;24.30;;;2.00;99.90;;;;;;5048628;28;20052;-70
2021/11/12 07:55:00;;;;;;;61.37;23.30;;;2.00;99.90;;;;;;5045932;28;20053;-74
2021/11/12 07:57:27;;;;;;;64.63;23.50;;;2.00;99.90;;;;;;5050863;28;20466;-71
2021/11/12 07:59:54;;;;;;;57.40;22.23;;;2.10;99.90;;;;;;5047949;28;20106;-72
2021/11/12 08:02:22;;;;;;;59.77;22.77;;;2.00;99.90;;;;;;5046918;28;20383;-71
2021/11/12 08:04:51;;;;;;;56.03;20.00;;;2.10;99.90;;;;;;5044539;28;20057;-71
2021/11/12 08:07:18;;;;;;;51.97;20.93;;;2.00;99.90;;;;;;5046097;28;20060;-73
2021/11/12 08:09:53;;;;;;;55.10;21.50;;;2.00;99.90;;;;;;5046082;28;20041;-71
2021/11/12 08:12:22;;;;;;;52.27;21.60;;;2.00;99.90;;;;;;5047894;28;20138;-72
2021/11/12 08:15:10;;;;;;;46.70;20.30;;;2.20;99.90;;;;;;5051215;28;20586;-75
2021/11/12 08:17:43;;;;;;;51.57;21.70;;;2.20;99.90;;;;;;5050213;28;20053;-73
2021/11/12 08:20:19;;;;;;;44.37;19.43;;;2.30;99.90;;;;;;5047955;28;20095;-72
2021/11/12 08:22:52;;;;;;;41.92;18.63;;;2.20;99.90;;;;;;5047354;28;20059;-71
2021/11/12 08:25:24;;;;;;;39.53;18.53;;;2.20;99.90;;;;;;5048118;28;20061;-73
2021/11/12 08:28:12;;;;;;;42.30;19.13;;;2.20;99.90;;;;;;5048831;28;20056;-74
2021/11/12 08:33:33;;;;;;;30.50;14.57;;;2.30;99.90;;;;;;5013482;28;20044;-72
2021/11/12 08:38:48;;;;;;;43.87;20.30;;;2.40;99.90;;;;;;5004139;28;20041;-71
2021/11/12 08:41:18;;;;;;;39.50;21.30;;;2.30;99.90;;;;;;5051430;28;20052;-71
2021/11/12 08:43:49;;;;;;;48.97;20.90;;;2.50;99.90;;;;;;5048093;28;20056;-73
2021/11/12 08:46:24;;;;;;;45.10;21.27;;;2.50;99.90;;;;;;5048761;28;20109;-70
2021/11/12 08:48:57;;;;;;;40.47;19.73;;;2.50;99.90;;;;;;5049908;28;20056;-72
2021/11/12 08:51:24;;;;;;;43.90;19.97;;;2.50;99.90;;;;;;5050264;28;20104;-70
2021/11/12 08:53:52;;;;;;;40.80;18.87;;;2.50;99.90;;;;;;5050065;28;20103;-70
2021/11/12 08:56:22;;;;;;;42.40;18.87;;;2.40;99.90;;;;;;5044078;28;20056;-72
2021/11/12 08:58:52;;;;;;;49.70;20.53;;;2.40;99.90;;;;;;5048626;28;20053;-74
2021/11/12 09:01:20;;;;;;;41.93;19.37;;;2.50;99.90;;;;;;5049225;28;20147;-71
2021/11/12 09:03:47;;;;;;;48.40;21.27;;;2.50;99.90;;;;;;5050387;28;20083;-71
2021/11/12 09:06:15;;;;;;;44.50;21.17;;;2.70;99.90;;;;;;5048738;28;20061;-73
2021/11/12 09:08:42;;;;;;;49.30;23.07;;;2.80;99.90;;;;;;5050288;28;20095;-71
2021/11/12 09:11:10;;;;;;;46.97;21.73;;;2.80;99.90;;;;;;5049890;28;20076;-72
2021/11/12 09:13:43;;;;;;;47.10;20.37;;;2.80;99.90;;;;;;5048828;28;20099;-72
2021/11/12 09:16:12;;;;;;;42.10;19.73;;;2.90;99.90;;;;;;5047761;28;20113;-74
2021/11/12 09:18:39;;;;;;;46.23;21.13;;;2.80;99.90;;;;;;5047765;28;20474;-74
2021/11/12 09:21:07;;;;;;;49.10;22.13;;;2.80;99.90;;;;;;5049011;28;20064;-71
2021/11/12 09:23:34;;;;;;;41.13;19.93;;;2.90;99.90;;;;;;5048502;28;20551;-75
2021/11/12 09:26:01;;;;;;;48.80;20.33;;;3.00;99.90;;;;;;5048342;28;20082;-72
2021/11/12 09:28:28;;;;;;;47.20;21.77;;;3.00;99.90;;;;;;5050981;28;20049;-72
2021/11/12 09:30:57;;;;;;;53.87;21.60;;;3.10;99.90;;;;;;5048618;28;20088;-71
2021/11/12 09:33:24;;;;;;;46.10;21.33;;;3.30;99.90;;;;;;5050020;28;20705;-71
2021/11/12 09:35:51;;;;;;;50.13;21.17;;;3.30;99.90;;;;;;5049065;28;20417;-72
2021/11/12 09:38:18;;;;;;;53.97;21.53;;;3.10;99.90;;;;;;5049513;28;20549;-74
2021/11/12 09:40:45;;;;;;;46.07;21.53;;;3.20;99.90;;;;;;5051917;28;20448;-71
2021/11/12 09:43:13;;;;;;;46.80;21.13;;;3.10;99.90;;;;;;5052388;28;20413;-75
2021/11/12 09:45:40;;;;;;;49.27;21.80;;;3.20;99.90;;;;;;5051374;28;20080;-75
2021/11/12 09:48:10;;;;;;;46.10;20.83;;;3.30;99.90;;;;;;5052813;28;20101;-72
2021/11/12 09:50:37;;;;;;;43.33;19.40;;;3.30;99.90;;;;;;5054857;28;20053;-74
2021/11/12 09:53:07;;;;;;;41.93;19.63;;;3.30;99.90;;;;;;5051148;28;20049;-71
2021/11/12 09:55:34;;;;;;;51.97;19.33;;;3.30;99.90;;;;;;5049264;28;20300;-72
2021/11/12 09:58:03;;;;;;;37.20;17.17;;;3.30;99.90;;;;;;5053120;28;20090;-75
2021/11/12 10:00:33;;;;;;;39.17;18.20;;;3.20;99.90;;;;;;5053163;28;20091;-71
2021/11/12 10:03:02;;;;;;;39.03;18.40;;;3.30;99.90;;;;;;5052068;28;20049;-71
2021/11/12 10:05:42;;;;;;;36.43;16.53;;;3.30;99.90;;;;;;5051018;28;20048;-72
2021/11/12 10:08:24;;;;;;;36.33;17.57;;;3.40;99.90;;;;;;5054768;28;20057;-73
2021/11/12 10:10:55;;;;;;;40.87;17.90;;;3.20;99.90;;;;;;5051525;28;20056;-73
2021/11/12 10:13:29;;;;;;;40.83;18.83;;;3.30;99.90;;;;;;5050354;28;20102;-73
2021/11/12 10:19:20;;;;;;;37.47;18.03;;;3.40;99.90;;;;;;5017449;28;20386;-71
2021/11/12 10:21:52;;;;;;;47.70;18.60;;;3.30;99.90;;;;;;4973307;28;21062;-73
2021/11/12 10:24:25;;;;;;;45.87;19.70;;;3.40;99.90;;;;;;4970965;28;20136;-72
2021/11/12 10:26:54;;;;;;;46.50;21.13;;;3.40;99.90;;;;;;5014405;28;20745;-76
2021/11/12 10:29:24;;;;;;;49.93;21.73;;;3.50;99.90;;;;;;5051352;28;20425;-71
2021/11/12 10:31:53;;;;;;;49.57;23.40;;;3.50;99.90;;;;;;5049976;28;20068;-74
2021/11/12 10:34:22;;;;;;;49.53;22.43;;;3.60;99.90;;;;;;5051514;28;20044;-70
2021/11/12 10:36:56;;;;;;;54.03;23.63;;;3.60;99.90;;;;;;5047923;28;20049;-70
2021/11/12 10:39:29;;;;;;;49.73;21.47;;;3.70;99.90;;;;;;5049198;28;20138;-71
2021/11/12 10:41:58;;;;;;;51.23;23.27;;;3.60;99.90;;;;;;5050922;28;20289;-70
2021/11/12 10:44:25;;;;;;;49.03;22.17;;;3.50;99.90;;;;;;5052117;28;20416;-72
2021/11/12 10:46:52;;;;;;;50.10;23.63;;;3.70;99.90;;;;;;5048686;28;20520;-70
2021/11/12 10:49:31;;;;;;;52.50;24.17;;;3.70;99.90;;;;;;5048577;28;20796;-73
2021/11/12 10:52:02;;;;;;;56.30;26.87;;;3.70;99.90;;;;;;5052272;28;20056;-70
2021/11/12 10:54:41;;;;;;;56.77;25.77;;;3.70;99.90;;;;;;5048449;28;20502;-73
2021/11/12 10:57:09;;;;;;;61.60;27.67;;;3.70;99.90;;;;;;5047830;28;20064;-69
2021/11/12 10:59:38;;;;;;;57.43;27.30;;;3.70;99.90;;;;;;5046685;28;20394;-70
2021/11/12 11:02:06;;;;;;;58.93;26.40;;;3.80;99.90;;;;;;5050996;28;20060;-72
2021/11/12 11:04:42;;;;;;;47.00;23.00;;;3.70;99.90;;;;;;5049581;28;20053;-70
2021/11/12 11:07:24;;;;;;;45.70;20.88;;;3.70;99.90;;;;;;5047913;28;20432;-71
2021/11/12 11:09:56;;;;;;;38.90;20.10;;;3.80;99.90;;;;;;5048125;28;20106;-72
2021/11/12 11:12:39;;;;;;;47.13;23.07;;;3.70;99.90;;;;;;5048974;28;20060;-71
2021/11/12 11:15:32;;;;;;;49.13;22.77;;;3.80;99.90;;;;;;5049851;28;20390;-70
2021/11/12 11:18:20;;;;;;;47.43;22.80;;;3.80;99.90;;;;;;5047830;28;20127;-72
2021/11/12 11:20:59;;;;;;;53.40;25.63;;;3.90;99.90;;;;;;5048931;28;20523;-75
2021/11/12 11:23:29;;;;;;;52.00;24.33;;;3.80;99.90;;;;;;5048997;28;20059;-73
2021/11/12 11:26:02;;;;;;;48.27;24.73;;;3.80;99.90;;;;;;5048261;28;20566;-71
2021/11/12 11:28:31;;;;;;;53.23;24.97;;;3.80;99.90;;;;;;5050167;28;20769;-72
2021/11/12 11:30:59;;;;;;;50.47;25.73;;;3.90;99.90;;;;;;5047284;28;20064;-74
2021/11/12 11:33:26;;;;;;;53.00;25.90;;;3.90;99.90;;;;;;5049439;28;20052;-71
2021/11/12 11:35:56;;;;;;;56.00;24.27;;;3.80;99.90;;;;;;5049437;28;20538;-77
2021/11/12 11:38:29;;;;;;;53.43;23.30;;;3.80;99.90;;;;;;5048915;28;20437;-71
2021/11/12 11:40:57;;;;;;;47.07;23.73;;;3.70;99.90;;;;;;5050908;28;20052;-74
2021/11/12 11:43:25;;;;;;;73.73;25.03;;;3.90;99.90;;;;;;5047841;28;20061;-76
2021/11/12 11:45:55;;;;;;;54.53;25.13;;;4.00;99.90;;;;;;5048009;28;20106;-71
2021/11/12 11:48:23;;;;;;;50.90;24.43;;;4.10;99.90;;;;;;5048248;28;20532;-75
2021/11/12 11:50:51;;;;;;;51.87;25.27;;;4.20;99.90;;;;;;5048880;28;20053;-71
2021/11/12 11:53:32;;;;;;;51.90;25.47;;;4.30;99.90;;;;;;5046974;28;20097;-71
2021/11/12 11:56:18;;;;;;;53.43;25.97;;;4.20;99.90;;;;;;5047453;28;20224;-77
2021/11/12 11:58:49;;;;;;;49.13;24.00;;;4.20;99.90;;;;;;5046573;28;20140;-72
2021/11/12 12:01:36;;;;;;;47.17;24.70;;;4.30;99.90;;;;;;5046700;28;20071;-73
2021/11/12 12:04:38;;;;;;;55.72;26.65;;;4.30;99.90;;;;;;5047319;28;20106;-72
2021/11/12 12:07:25;;;;;;;52.10;26.03;;;4.20;99.90;;;;;;5045586;28;20570;-71
2021/11/12 12:09:58;;;;;;;53.27;25.87;;;4.30;99.90;;;;;;5049271;28;20080;-71
2021/11/12 12:12:50;;;;;;;56.77;26.27;;;4.20;99.90;;;;;;5047358;28;20060;-73
2021/11/12 12:15:43;;;;;;;56.97;27.90;;;4.20;99.90;;;;;;5047604;28;20204;-71
2021/11/12 12:18:30;;;;;;;58.93;27.73;;;4.30;99.90;;;;;;5048803;28;20048;-70
2021/11/12 12:33:33;;;;;;;42.07;20.57;;;4.30;99.90;;;;;;5051821;28;20060;-73
2021/11/12 13:22:03;;;;;;;39.50;17.30;;;4.40;99.90;;;;;;5049034;28;20060;-70
2021/11/12 13:24:33;;;;;;;33.40;16.53;;;4.30;99.90;;;;;;5048797;28;20060;-75
2021/11/12 13:27:04;;;;;;;38.83;18.90;;;4.40;99.90;;;;;;5049588;28;20121;-72
2021/11/12 13:29:31;;;;;;;38.50;18.60;;;4.30;99.90;;;;;;5049676;28;20570;-73
2021/11/12 13:32:03;;;;;;;38.17;18.83;;;4.40;99.90;;;;;;5047155;28;20056;-71
2021/11/12 13:34:40;;;;;;;45.87;22.33;;;4.30;99.90;;;;;;5048845;28;20510;-72
2021/11/12 13:37:17;;;;;;;55.10;23.73;;;4.40;99.90;;;;;;5049301;28;20501;-70
2021/11/12 13:39:44;;;;;;;52.83;24.50;;;4.30;99.90;;;;;;5049531;28;20060;-73
2021/11/12 13:42:11;;;;;;;52.20;24.70;;;4.30;99.90;;;;;;5049140;28;20048;-71
2021/11/12 13:44:40;;;;;;;43.80;20.40;;;4.30;99.90;;;;;;5047576;28;20098;-75
2021/11/12 13:47:11;;;;;;;36.53;16.97;;;4.30;99.90;;;;;;5050260;28;20098;-75
2021/11/12 13:49:42;;;;;;;36.93;16.60;;;4.40;99.90;;;;;;5050977;28;20053;-71
2021/11/12 13:52:11;;;;;;;32.93;16.00;;;4.40;99.90;;;;;;5048962;28;20053;-73
2021/11/12 13:54:44;;;;;;;31.10;15.60;;;4.50;99.90;;;;;;5049700;28;20048;-71
2021/11/12 13:57:14;;;;;;;29.37;15.23;;;4.40;99.90;;;;;;5048900;28;20105;-72
2021/11/12 13:59:51;;;;;;;38.30;18.87;;;4.30;99.90;;;;;;5048230;28;20563;-71
2021/11/12 14:02:19;;;;;;;44.63;19.17;;;4.30;99.90;;;;;;5046760;28;20113;-73
2021/11/12 14:04:47;;;;;;;43.03;20.47;;;4.30;99.90;;;;;;5048081;28;20056;-74
2021/11/12 14:07:20;;;;;;;42.93;19.97;;;4.40;99.90;;;;;;5050665;28;20456;-72
2021/11/12 14:10:00;;;;;;;61.27;25.37;;;4.30;99.90;;;;;;5051104;28;20069;-71
2021/11/12 14:12:28;;;;;;;42.03;20.27;;;4.30;99.90;;;;;;5049816;28;20466;-73
2021/11/12 14:15:05;;;;;;;48.67;22.23;;;4.30;99.90;;;;;;5048259;28;20065;-72
2021/11/12 14:17:37;;;;;;;45.83;21.33;;;4.30;99.90;;;;;;5049108;28;20048;-71
2021/11/12 14:23:05;;;;;;;51.77;24.87;;;4.40;99.90;;;;;;5048533;28;20120;-74
2021/11/12 14:25:44;;;;;;;40.93;19.10;;;4.60;99.90;;;;;;5049245;28;20068;-74
2021/11/12 14:28:20;;;;;;;38.67;19.57;;;4.50;99.90;;;;;;5052150;28;20151;-72
2021/11/12 14:31:09;;;;;;;35.22;17.52;;;4.40;99.90;;;;;;5054512;28;20139;-71
2021/11/12 14:33:50;;;;;;;30.53;14.83;;;4.30;99.90;;;;;;5051198;28;20107;-73
2021/11/12 14:36:33;;;;;;;31.93;15.23;;;4.40;99.90;;;;;;5052016;28;20067;-74
2021/11/12 14:39:25;;;;;;;34.53;16.80;;;4.40;99.90;;;;;;5051671;28;20064;-70
2021/11/12 14:45:07;;;;;;;36.67;17.73;;;4.40;99.90;;;;;;5052591;28;20058;-72
2021/11/12 14:47:42;;;;;;;34.67;16.77;;;4.40;99.90;;;;;;5052385;28;20055;-71
2021/11/12 14:50:41;;;;;;;36.17;16.30;;;4.40;99.90;;;;;;5054876;28;20459;-71
2021/11/12 14:53:22;;;;;;;38.53;16.90;;;4.40;99.90;;;;;;5051129;28;20065;-71
2021/11/12 14:55:53;;;;;;;34.90;16.87;;;4.40;99.90;;;;;;5053576;28;20049;-73
2021/11/12 14:58:21;;;;;;;35.43;16.67;;;4.40;99.90;;;;;;5054026;28;20516;-71
2021/11/12 15:00:48;;;;;;;33.57;15.93;;;4.40;99.90;;;;;;5051159;28;20053;-74
2021/11/12 15:03:16;;;;;;;33.33;15.57;;;4.40;99.90;;;;;;5053533;28;20061;-74
2021/11/12 15:05:43;;;;;;;30.83;15.20;;;4.40;99.90;;;;;;5050807;28;20040;-71
2021/11/12 15:08:18;;;;;;;31.20;16.00;;;4.30;99.90;;;;;;5052976;28;20052;-75
2021/11/12 15:10:47;;;;;;;28.87;15.10;;;4.40;99.90;;;;;;5050148;28;20143;-71
2021/11/12 15:13:15;;;;;;;31.10;15.60;;;4.40;99.90;;;;;;5051049;28;20096;-71
2021/11/12 15:15:42;;;;;;;30.60;14.97;;;4.40;99.90;;;;;;5051527;28;20051;-73
2021/11/12 15:18:12;;;;;;;31.13;15.47;;;4.40;99.90;;;;;;5051484;28;20106;-71
2021/11/12 15:20:40;;;;;;;31.53;15.63;;;4.30;99.90;;;;;;5051407;28;20103;-73
2021/11/12 15:26:15;;;;;;;33.63;16.47;;;4.40;99.90;;;;;;5051339;28;20052;-71
2021/11/12 15:28:56;;;;;;;33.37;16.37;;;4.30;99.90;;;;;;5051169;28;20111;-71
2021/11/12 15:31:25;;;;;;;36.53;16.47;;;4.30;99.90;;;;;;5051446;28;20049;-72
2021/11/12 15:33:59;;;;;;;34.77;16.87;;;4.30;99.90;;;;;;5052032;28;20057;-72
2021/11/12 15:36:26;;;;;;;34.67;17.10;;;4.30;99.90;;;;;;5049905;28;20053;-72
2021/11/12 15:38:56;;;;;;;35.97;18.10;;;4.40;99.90;;;;;;5050459;28;20789;-71
2021/11/12 15:44:12;;;;;;;38.50;18.50;;;4.30;99.90;;;;;;5042564;28;20587;-71
2021/11/12 15:46:42;;;;;;;37.03;17.23;;;4.40;99.90;;;;;;5050645;28;20131;-72
2021/11/12 15:49:09;;;;;;;41.70;19.77;;;4.40;99.90;;;;;;5049741;28;20055;-73
2021/11/12 15:51:39;;;;;;;42.17;19.13;;;4.30;99.90;;;;;;5053734;28;20048;-74
2021/11/12 15:54:25;;;;;;;45.03;21.07;;;4.30;99.90;;;;;;5050673;28;20067;-75
2021/11/12 15:59:45;;;;;;;42.17;20.90;;;4.30;99.90;;;;;;5025919;28;20547;-70
2021/11/12 16:07:58;;;;;;;42.23;19.33;;;4.30;99.90;;;;;;5049473;28;20055;-71
2021/11/12 16:10:45;;;;;;;44.03;19.43;;;4.20;99.90;;;;;;5050033;28;20461;-76
2021/11/12 16:13:17;;;;;;;47.40;20.77;;;4.20;99.90;;;;;;5049529;28;20061;-70
2021/11/12 16:16:02;;;;;;;47.17;21.10;;;4.20;99.90;;;;;;5049448;28;20612;-75
2021/11/12 16:18:41;;;;;;;43.73;20.33;;;4.30;99.90;;;;;;5049356;28;20096;-71
2021/11/12 16:26:43;;;;;;;39.60;19.70;;;4.30;99.90;;;;;;5051769;28;20051;-72
2021/11/12 16:31:52;;;;;;;41.20;19.90;;;4.30;99.90;;;;;;5044641;28;20059;-72
2021/11/12 16:34:21;;;;;;;49.47;22.00;;;4.30;99.90;;;;;;5046899;28;20052;-72
2021/11/12 16:36:52;;;;;;;42.73;19.57;;;4.30;99.90;;;;;;5049555;28;20068;-70
2021/11/12 16:39:24;;;;;;;45.23;21.83;;;4.30;99.90;;;;;;5050767;28;20111;-70
2021/11/12 16:41:58;;;;;;;48.13;21.23;;;4.30;99.90;;;;;;5049998;28;20056;-70
2021/11/12 16:44:31;;;;;;;49.97;22.87;;;4.40;99.90;;;;;;5048378;28;20148;-74
2021/11/12 16:50:08;;;;;;;46.47;21.43;;;4.40;99.90;;;;;;5031978;28;20045;-72
2021/11/12 16:52:43;;;;;;;48.53;21.70;;;4.40;99.90;;;;;;5046807;28;20428;-73
2021/11/12 16:55:20;;;;;;;52.37;22.50;;;4.30;99.90;;;;;;5046813;28;20053;-71
2021/11/12 16:57:56;;;;;;;53.70;23.73;;;4.30;99.90;;;;;;5051158;28;20104;-71
2021/11/12 17:03:08;;;;;;;47.03;22.40;;;4.30;99.90;;;;;;5050847;28;20062;-73
2021/11/12 17:05:39;;;;;;;47.40;20.37;;;4.30;99.90;;;;;;5052160;28;20075;-71
2021/11/12 17:08:15;;;;;;;45.43;20.73;;;4.30;99.90;;;;;;5050944;28;20060;-72
2021/11/12 17:10:49;;;;;;;48.57;22.33;;;4.30;99.90;;;;;;5048336;28;20080;-70